Time;durP1;ratioP1;P1;durP2;ratioP2;P2;SDS_P1;SDS_P2;PMS_P1;PMS_P2;Temp;Humidity;BMP_temperature;BMP_pressure;BME280_temperature;BME280_humidity;BME280_pressure;Samples;Min_cycle;Max_cycle;Signal;HPM_P1;HPM_P2
2023/12/31 00:00:31;;;;;;;64.22;29.33;;;;;;;4.57;78.05;95569.38;5056361;28;20186;-79
2023/12/31 00:02:56;;;;;;;76.72;34.30;;;;;;;4.43;77.88;95547.72;5055884;28;20097;-79
2023/12/31 00:05:22;;;;;;;85.22;33.67;;;;;;;4.20;77.76;95501.22;5056512;28;20036;-79
2023/12/31 00:07:47;;;;;;;83.55;38.15;;;;;;;4.65;77.94;95563.78;5056559;28;20017;-79
2023/12/31 00:10:13;;;;;;;95.20;39.28;;;;;;;4.45;77.51;95532.56;5057409;28;20032;-79
2023/12/31 00:12:39;;;;;;;97.05;44.20;;;;;;;4.88;77.60;95605.03;5056757;28;20030;-79
2023/12/31 00:15:05;;;;;;;73.22;34.80;;;;;;;4.92;77.76;95606.19;5056680;28;20041;-79
2023/12/31 00:17:30;;;;;;;98.18;42.83;;;;;;;4.48;77.35;95540.00;5056824;28;20026;-79
2023/12/31 00:19:56;;;;;;;90.40;37.67;;;;;;;4.66;77.75;95568.78;5056375;28;20040;-79
2023/12/31 00:22:22;;;;;;;106.05;45.05;;;;;;;4.89;77.57;95589.03;5056997;28;20091;-79
2023/12/31 00:24:51;;;;;;;106.28;45.65;;;;;;;4.97;77.23;95604.47;5054785;28;20010;-79
2023/12/31 00:27:17;;;;;;;111.22;46.88;;;;;;;4.72;77.51;95580.22;5056055;28;20009;-79
2023/12/31 00:29:44;;;;;;;103.25;47.88;;;;;;;4.95;77.45;95613.63;5056809;28;20673;-79
2023/12/31 00:32:10;;;;;;;99.68;42.70;;;;;;;4.74;77.61;95596.53;5056225;28;20044;-79
2023/12/31 00:34:36;;;;;;;107.30;46.97;;;;;;;4.46;77.82;95543.88;5055491;28;20041;-79
2023/12/31 00:37:02;;;;;;;108.55;49.78;;;;;;;4.22;77.82;95507.06;5055985;28;20063;-79
2023/12/31 00:39:28;;;;;;;99.35;42.45;;;;;;;4.45;77.70;95553.56;5056482;28;20026;-79
2023/12/31 00:41:53;;;;;;;108.93;46.58;;;;;;;4.52;77.52;95561.34;5054995;28;20092;-79
2023/12/31 00:44:19;;;;;;;119.95;47.90;;;;;;;4.92;77.31;95609.59;5055501;28;20037;-79
2023/12/31 00:46:44;;;;;;;121.47;53.78;;;;;;;4.91;77.54;95612.47;5055991;28;20037;-79
2023/12/31 00:49:10;;;;;;;136.30;56.25;;;;;;;4.86;77.23;95596.56;5056011;28;20088;-79
2023/12/31 00:51:36;;;;;;;134.32;56.90;;;;;;;4.90;77.37;95611.66;5055583;28;20033;-79
2023/12/31 00:54:01;;;;;;;138.57;56.22;;;;;;;4.83;77.16;95594.41;5056749;28;20041;-79
2023/12/31 00:56:27;;;;;;;126.97;57.53;;;;;;;4.85;77.35;95602.84;5056639;28;20041;-79
2023/12/31 00:58:52;;;;;;;130.50;54.95;;;;;;;4.79;77.21;95595.88;5055388;28;20049;-79
2023/12/31 01:01:18;;;;;;;130.88;54.95;;;;;;;4.69;77.00;95564.09;5055331;28;20105;-79
2023/12/31 01:03:43;;;;;;;116.57;50.05;;;;;;;4.88;76.63;95594.53;5054786;28;20128;-79
2023/12/31 01:06:09;;;;;;;128.18;54.22;;;;;;;4.80;77.04;95602.75;5055121;28;20057;-79
2023/12/31 01:08:34;;;;;;;110.22;46.85;;;;;;;4.46;76.92;95546.50;5056232;28;20034;-79
2023/12/31 01:11:00;;;;;;;81.55;37.15;;;;;;;4.77;77.40;95590.06;5054915;28;20061;-79
2023/12/31 01:16:06;;;;;;;91.00;40.00;;;;;;;4.34;77.41;95504.47;5084550;23;20127;-84
2023/12/31 01:18:31;;;;;;;109.05;46.20;;;;;;;4.54;77.39;95546.97;5058444;28;20406;-85
2023/12/31 01:20:57;;;;;;;103.38;42.65;;;;;;;4.69;77.69;95574.63;5054642;28;20040;-85
2023/12/31 01:23:23;;;;;;;106.32;42.88;;;;;;;4.09;77.62;95467.91;5057886;28;20167;-85
2023/12/31 01:25:49;;;;;;;77.20;34.67;;;;;;;4.50;77.92;95524.78;5069854;28;20060;-87
2023/12/31 01:28:14;;;;;;;62.67;31.02;;;;;;;3.93;77.99;95437.06;5058810;28;20223;-87
2023/12/31 01:30:40;;;;;;;74.07;31.90;;;;;;;4.76;78.00;95560.34;5066148;28;20088;-87
2023/12/31 01:33:06;;;;;;;67.70;31.63;;;;;;;4.82;77.72;95580.44;5075100;28;20041;-84
2023/12/31 01:35:31;;;;;;;88.88;35.60;;;;;;;4.11;77.57;95457.97;5052952;28;20040;-85
2023/12/31 01:37:57;;;;;;;80.65;34.22;;;;;;;4.41;78.02;95518.28;5054294;28;20071;-85
2023/12/31 01:40:22;;;;;;;75.53;34.42;;;;;;;4.70;77.92;95576.22;5053605;28;20526;-85
2023/12/31 01:42:48;;;;;;;69.57;32.55;;;;;;;4.49;77.68;95538.97;5070160;28;20041;-85
2023/12/31 01:45:14;;;;;;;79.15;34.03;;;;;;;4.49;77.79;95540.78;5053800;28;20111;-85
2023/12/31 01:47:40;;;;;;;75.35;33.50;;;;;;;4.52;77.35;95542.94;5069557;28;20039;-85
2023/12/31 01:50:07;;;;;;;79.95;33.78;;;;;;;4.71;77.64;95575.19;5052006;28;20032;-85
2023/12/31 01:52:34;;;;;;;75.95;33.22;;;;;;;4.71;77.61;95576.00;5059059;28;20056;-87
2023/12/31 01:55:04;;;;;;;67.75;32.63;;;;;;;4.12;77.87;95498.16;5062052;28;20036;-88
2023/12/31 01:57:31;;;;;;;67.28;30.02;;;;;;;3.74;78.15;95443.38;5059584;28;20040;-88
2023/12/31 01:59:59;;;;;;;78.07;33.15;;;;;;;3.77;77.95;95445.56;5060817;28;20500;-87
2023/12/31 02:02:25;;;;;;;68.05;30.65;;;;;;;3.53;78.15;95415.84;5075586;28;20025;-88
2023/12/31 02:04:52;;;;;;;62.70;29.75;;;;;;;3.97;77.93;95490.66;5060263;28;20067;-86
2023/12/31 02:07:18;;;;;;;63.97;30.40;;;;;;;3.57;77.71;95403.09;5061936;28;20091;-88
2023/12/31 02:09:44;;;;;;;74.53;31.50;;;;;;;4.55;77.94;95550.41;5059877;28;20037;-87
2023/12/31 02:12:10;;;;;;;62.85;30.73;;;;;;;4.47;77.88;95564.66;5062264;28;20085;-88
2023/12/31 02:14:36;;;;;;;66.60;29.67;;;;;;;3.45;78.07;95389.94;5060339;28;20060;-86
2023/12/31 02:17:01;;;;;;;68.40;31.27;;;;;;;4.17;77.93;95506.94;5062682;28;20126;-87
2023/12/31 02:19:27;;;;;;;60.38;29.17;;;;;;;4.49;78.24;95557.34;5077191;28;20072;-87
2023/12/31 02:21:53;;;;;;;58.17;27.90;;;;;;;4.60;78.11;95566.25;5062117;28;20032;-87
2023/12/31 02:24:21;;;;;;;67.47;29.63;;;;;;;4.19;78.22;95519.84;5062271;28;20081;-86
2023/12/31 02:26:46;;;;;;;64.80;28.25;;;;;;;4.12;78.46;95503.41;5060466;28;20025;-85
2023/12/31 02:29:12;;;;;;;57.03;26.50;;;;;;;3.42;78.28;95377.31;5076615;28;20033;-87
2023/12/31 02:31:37;;;;;;;54.55;27.13;;;;;;;4.21;78.42;95502.84;5076879;28;20029;-87
2023/12/31 02:34:03;;;;;;;60.35;27.02;;;;;;;4.10;78.72;95490.50;5075616;28;20052;-87
2023/12/31 02:36:29;;;;;;;58.08;27.05;;;;;;;3.60;78.93;95406.06;5060443;28;20025;-87
2023/12/31 02:38:54;;;;;;;56.25;27.38;;;;;;;4.09;79.29;95480.22;5058256;28;20068;-87
2023/12/31 02:41:20;;;;;;;87.88;40.85;;;;;;;4.42;78.72;95530.41;5060032;28;20048;-87
2023/12/31 02:43:45;;;;;;;110.05;47.33;;;;;;;4.40;78.69;95514.06;5061599;28;20111;-88
2023/12/31 02:46:11;;;;;;;123.95;54.05;;;;;;;4.03;78.50;95454.88;5077628;28;20560;-86
2023/12/31 02:48:36;;;;;;;125.28;52.88;;;;;;;3.79;77.82;95417.28;5064811;28;20068;-88
2023/12/31 02:51:02;;;;;;;111.70;49.72;;;;;;;3.93;78.02;95452.78;5081186;28;20032;-87
2023/12/31 02:53:27;;;;;;;116.70;52.60;;;;;;;4.61;77.64;95562.63;5068252;28;20036;-87
2023/12/31 02:55:53;;;;;;;120.20;52.97;;;;;;;4.39;77.70;95533.47;5093043;28;20037;-86
2023/12/31 02:58:18;;;;;;;120.25;53.70;;;;;;;4.42;77.87;95561.91;5077364;28;20031;-86
2023/12/31 03:00:44;;;;;;;117.78;50.60;;;;;;;3.97;78.39;95505.66;5078099;28;20044;-87
2023/12/31 03:03:09;;;;;;;92.53;42.28;;;;;;;4.07;78.24;95506.69;5077741;28;20027;-87
2023/12/31 03:05:35;;;;;;;92.07;41.05;;;;;;;3.23;78.16;95373.91;5092962;28;20021;-87
2023/12/31 03:08:01;;;;;;;98.25;41.72;;;;;;;4.25;78.13;95534.69;5077606;28;20040;-87
2023/12/31 03:10:27;;;;;;;86.35;38.13;;;;;;;3.79;78.26;95475.81;5088911;28;20025;-87
2023/12/31 03:12:53;;;;;;;80.30;37.08;;;;;;;4.40;77.80;95561.34;5064495;28;20040;-87
2023/12/31 03:15:21;;;;;;;86.28;36.92;;;;;;;4.36;77.54;95557.53;5064429;28;20510;-87
2023/12/31 03:17:47;;;;;;;86.18;38.58;;;;;;;3.59;78.19;95443.00;5065182;28;20040;-87
2023/12/31 03:20:12;;;;;;;71.60;35.00;;;;;;;3.32;77.96;95398.00;5081289;28;20025;-87
2023/12/31 03:22:38;;;;;;;80.75;36.17;;;;;;;4.15;78.23;95526.56;5064214;28;20021;-87
2023/12/31 03:25:05;;;;;;;75.47;33.85;;;;;;;4.27;77.72;95553.66;5063138;28;20525;-87
2023/12/31 03:27:30;;;;;;;72.93;34.20;;;;;;;3.54;78.05;95437.63;5062611;28;20417;-87
2023/12/31 03:29:57;;;;;;;73.57;36.10;;;;;;;4.19;77.62;95549.53;5062987;28;20036;-87
2023/12/31 03:32:22;;;;;;;80.28;34.83;;;;;;;3.36;77.89;95409.63;5061932;28;20116;-87
2023/12/31 03:34:48;;;;;;;79.07;33.40;;;;;;;3.94;78.17;95537.56;5079686;28;20068;-87
2023/12/31 03:37:14;;;;;;;71.68;34.47;;;;;;;3.64;78.13;95487.72;5063984;28;20029;-87
2023/12/31 03:39:41;;;;;;;73.53;33.97;;;;;;;2.65;78.54;95326.53;5062500;28;20379;-82
2023/12/31 03:42:06;;;;;;;72.07;33.17;;;;;;;3.44;78.31;95472.25;5055903;28;20498;-85
2023/12/31 03:44:32;;;;;;;74.07;32.92;;;;;;;3.29;78.25;95432.50;5055691;28;20141;-85
2023/12/31 03:46:57;;;;;;;66.75;30.25;;;;;;;3.77;78.45;95532.13;5055195;28;20029;-85
2023/12/31 03:49:23;;;;;;;64.88;28.38;;;;;;;3.13;78.56;95435.75;5053635;28;20056;-85
2023/12/31 03:51:49;;;;;;;64.95;27.88;;;;;;;3.27;78.50;95458.16;5071334;28;20035;-85
2023/12/31 03:54:14;;;;;;;66.90;30.52;;;;;;;3.76;78.81;95544.44;5055668;28;20029;-85
2023/12/31 03:56:40;;;;;;;68.15;31.05;;;;;;;3.67;78.38;95526.59;5070399;28;20090;-85
2023/12/31 03:59:05;;;;;;;48.03;24.85;;;;;;;3.80;78.47;95548.25;5054249;28;20083;-85
2023/12/31 04:01:31;;;;;;;56.05;25.27;;;;;;;3.69;78.58;95541.13;5070860;28;20455;-85
2023/12/31 04:03:57;;;;;;;57.03;24.95;;;;;;;3.55;78.45;95531.81;5055166;28;20509;-85
2023/12/31 04:06:23;;;;;;;60.65;25.88;;;;;;;3.03;78.80;95444.94;5070320;28;20200;-85
2023/12/31 04:08:49;;;;;;;55.22;25.70;;;;;;;2.87;78.76;95414.09;5070935;28;20481;-85
2023/12/31 04:11:14;;;;;;;45.40;23.27;;;;;;;2.61;78.08;95375.09;5070220;28;20063;-85
2023/12/31 04:13:43;;;;;;;47.88;22.80;;;;;;;2.98;78.33;95446.59;5055242;28;20043;-85
2023/12/31 04:16:09;;;;;;;49.80;23.33;;;;;;;2.93;78.21;95435.97;5055505;28;20057;-86
2023/12/31 04:18:35;;;;;;;56.78;24.75;;;;;;;2.83;78.31;95435.69;5054696;28;20055;-85
2023/12/31 04:21:00;;;;;;;51.17;24.77;;;;;;;1.46;78.06;95214.50;5054805;28;20110;-85
2023/12/31 04:23:26;;;;;;;80.78;36.55;;;;;;;3.41;78.45;95525.13;5055990;28;20147;-85
2023/12/31 04:25:52;;;;;;;65.38;29.60;;;;;;;3.17;78.33;95494.56;5053870;28;20072;-85
2023/12/31 04:28:18;;;;;;;91.28;38.05;;;;;;;2.96;78.67;95482.72;5070323;28;20051;-85
2023/12/31 04:30:43;;;;;;;86.68;38.22;;;;;;;3.14;78.26;95497.63;5055710;28;20033;-85
2023/12/31 04:33:09;;;;;;;93.43;42.60;;;;;;;3.67;78.25;95585.13;5057121;28;20033;-85
2023/12/31 04:35:34;;;;;;;108.90;47.63;;;;;;;3.36;78.14;95538.88;5058066;28;20039;-85
2023/12/31 04:38:00;;;;;;;114.60;45.42;;;;;;;3.30;77.49;95534.53;5057422;28;20551;-85
2023/12/31 04:40:26;;;;;;;114.25;47.58;;;;;;;2.62;77.59;95432.50;5070626;28;20105;-85
2023/12/31 04:42:51;;;;;;;113.10;47.78;;;;;;;3.59;77.34;95584.63;5054521;28;20108;-85
2023/12/31 04:45:17;;;;;;;96.60;43.97;;;;;;;3.40;77.09;95565.47;5069896;28;20060;-85
2023/12/31 04:47:42;;;;;;;105.40;46.78;;;;;;;2.74;76.95;95484.16;5069733;28;20164;-85
2023/12/31 04:50:08;;;;;;;105.40;44.15;;;;;;;2.86;79.15;95553.13;5069758;28;20115;-85
2023/12/31 04:52:34;;;;;;;92.25;42.80;;;;;;;2.85;78.63;95525.34;5054867;28;20029;-85
2023/12/31 04:55:00;;;;;;;100.68;45.38;;;;;;;2.84;78.15;95518.50;5055490;28;20048;-85
2023/12/31 04:57:25;;;;;;;111.70;47.53;;;;;;;3.21;77.81;95601.34;5054810;28;20057;-85
2023/12/31 04:59:51;;;;;;;99.75;44.53;;;;;;;2.89;78.21;95574.47;5069157;28;20060;-85
2023/12/31 05:02:17;;;;;;;101.13;46.20;;;;;;;2.80;78.78;95557.44;5052290;28;20495;-85
2023/12/31 05:04:43;;;;;;;99.95;46.67;;;;;;;2.81;78.49;95556.41;5054418;28;20546;-85
2023/12/31 05:07:09;;;;;;;102.55;46.20;;;;;;;3.13;78.51;95606.88;5054156;28;20075;-85
2023/12/31 05:09:35;;;;;;;107.38;45.63;;;;;;;2.20;78.52;95472.56;5052335;28;20167;-85
2023/12/31 05:12:01;;;;;;;108.68;46.30;;;;;;;2.31;78.68;95488.34;5051781;28;20025;-85
2023/12/31 05:14:27;;;;;;;106.13;44.38;;;;;;;2.42;78.42;95528.75;5052176;28;20106;-85
2023/12/31 05:16:52;;;;;;;95.95;43.17;;;;;;;2.57;78.21;95534.47;5053264;28;20125;-85
2023/12/31 05:19:18;;;;;;;93.05;42.15;;;;;;;1.98;78.20;95438.13;5053747;28;20467;-85
2023/12/31 05:21:43;;;;;;;90.35;42.15;;;;;;;1.97;78.07;95456.66;5068195;28;20041;-85
2023/12/31 05:24:09;;;;;;;97.57;39.90;;;;;;;2.35;78.69;95538.47;5068790;28;20033;-84
2023/12/31 05:26:34;;;;;;;100.50;42.47;;;;;;;2.88;78.72;95604.31;5069489;28;20029;-85
2023/12/31 05:29:01;;;;;;;85.53;40.08;;;;;;;2.40;78.70;95525.53;5053821;28;20032;-85
2023/12/31 05:31:26;;;;;;;89.35;38.83;;;;;;;2.41;78.54;95540.22;5052480;28;20063;-85
2023/12/31 05:33:52;;;;;;;91.47;39.30;;;;;;;2.16;78.52;95500.16;5068431;28;20095;-85
2023/12/31 05:36:17;;;;;;;88.13;40.53;;;;;;;2.61;78.10;95553.94;5068669;28;20096;-85
2023/12/31 05:38:43;;;;;;;90.65;40.42;;;;;;;2.24;78.17;95492.03;5051749;28;20032;-85
2023/12/31 05:41:09;;;;;;;83.05;38.60;;;;;;;2.74;77.69;95571.38;5052441;28;20029;-85
2023/12/31 05:43:34;;;;;;;86.93;39.17;;;;;;;2.41;78.04;95542.84;5068775;28;20029;-85
2023/12/31 05:46:01;;;;;;;91.60;39.63;;;;;;;2.61;78.24;95558.38;5068617;28;20123;-85
2023/12/31 05:48:27;;;;;;;91.65;39.85;;;;;;;2.45;78.25;95541.41;5051965;28;20492;-84
2023/12/31 05:50:52;;;;;;;88.22;39.05;;;;;;;2.40;78.53;95532.59;5051359;28;20028;-85
2023/12/31 05:53:18;;;;;;;95.82;40.45;;;;;;;2.84;78.31;95597.88;5052668;28;20036;-85
2023/12/31 05:55:45;;;;;;;97.95;39.80;;;;;;;2.41;78.24;95534.19;5068660;28;20093;-85
2023/12/31 05:58:11;;;;;;;93.50;40.35;;;;;;;1.82;78.25;95447.31;5053312;28;20032;-85
2023/12/31 06:00:36;;;;;;;89.47;38.25;;;;;;;2.49;78.24;95587.09;5068533;28;20029;-85
2023/12/31 06:03:02;;;;;;;85.82;38.58;;;;;;;2.58;78.37;95605.97;5069390;28;20487;-85
2023/12/31 06:05:28;;;;;;;91.68;39.92;;;;;;;2.64;78.90;95608.53;5068841;28;20029;-85
2023/12/31 06:07:53;;;;;;;91.18;40.60;;;;;;;2.62;78.59;95604.50;5068417;28;20431;-85
2023/12/31 06:10:19;;;;;;;84.50;39.15;;;;;;;1.94;78.27;95521.44;5052132;28;20055;-85
2023/12/31 06:12:44;;;;;;;86.95;40.58;;;;;;;1.65;78.38;95472.34;5068279;28;20103;-85
2023/12/31 06:15:11;;;;;;;88.22;42.00;;;;;;;2.41;78.41;95591.78;5068765;28;20117;-85
2023/12/31 06:17:37;;;;;;;85.70;41.13;;;;;;;2.33;78.44;95592.84;5053254;28;20029;-85
2023/12/31 06:20:04;;;;;;;93.57;40.10;;;;;;;2.07;78.46;95553.75;5057253;28;20036;-84
2023/12/31 06:22:30;;;;;;;89.68;41.38;;;;;;;2.49;78.71;95620.31;5062293;28;20088;-86
2023/12/31 06:24:56;;;;;;;90.35;40.72;;;;;;;2.24;79.00;95578.41;5063666;28;20025;-85
2023/12/31 06:27:23;;;;;;;96.90;41.72;;;;;;;2.53;78.97;95617.06;5062915;28;20506;-85
2023/12/31 06:29:50;;;;;;;90.30;40.70;;;;;;;2.28;78.90;95580.41;5061907;28;20037;-85
2023/12/31 06:32:16;;;;;;;86.38;41.25;;;;;;;2.23;79.15;95556.66;5064524;28;20094;-85
2023/12/31 06:34:41;;;;;;;87.60;40.53;;;;;;;2.06;79.14;95523.41;5064091;28;20033;-85
2023/12/31 06:37:07;;;;;;;89.25;39.55;;;;;;;1.99;79.00;95510.34;5064284;28;20071;-85
2023/12/31 06:39:33;;;;;;;86.72;41.28;;;;;;;2.28;79.08;95553.44;5079513;28;20052;-85
2023/12/31 06:41:58;;;;;;;77.68;37.78;;;;;;;2.05;78.99;95514.75;5063033;28;20025;-85
2023/12/31 06:44:23;;;;;;;87.70;41.00;;;;;;;2.35;78.77;95564.66;5073797;28;20037;-85
2023/12/31 06:46:49;;;;;;;98.50;44.25;;;;;;;2.81;79.03;95632.38;5056524;28;20021;-85
2023/12/31 06:49:14;;;;;;;99.80;44.83;;;;;;;2.67;79.10;95609.94;5055500;28;20053;-85
2023/12/31 06:51:40;;;;;;;106.00;44.03;;;;;;;0.42;78.96;95254.25;5055863;28;20048;-85
2023/12/31 06:54:06;;;;;;;101.90;43.67;;;;;;;2.23;79.35;95521.84;5071879;28;20120;-85
2023/12/31 06:56:32;;;;;;;105.07;44.47;;;;;;;2.49;78.85;95563.53;5054551;28;20041;-85
2023/12/31 06:58:57;;;;;;;108.97;48.00;;;;;;;2.81;79.08;95626.34;5070992;28;20104;-85
2023/12/31 07:01:23;;;;;;;109.47;49.78;;;;;;;2.14;78.93;95504.78;5056506;28;20043;-85
2023/12/31 07:03:48;;;;;;;117.65;47.63;;;;;;;2.77;78.81;95596.31;5071398;28;20096;-85
2023/12/31 07:06:14;;;;;;;108.15;49.85;;;;;;;2.41;78.60;95547.28;5070842;28;20117;-85
2023/12/31 07:08:39;;;;;;;114.50;49.25;;;;;;;2.86;78.13;95595.84;5056104;28;20051;-85
2023/12/31 07:11:05;;;;;;;105.10;48.90;;;;;;;3.03;78.59;95622.31;5071806;28;20083;-83
2023/12/31 07:13:31;;;;;;;114.90;50.28;;;;;;;3.19;78.56;95647.16;5054006;28;20036;-82
2023/12/31 07:16:02;;;;;;;111.53;47.75;;;;;;;3.13;78.44;95622.59;5069999;28;20133;-81
2023/12/31 07:18:28;;;;;;;123.70;49.58;;;;;;;0.94;78.21;95268.78;5070670;28;20119;-82
2023/12/31 07:20:55;;;;;;;102.25;48.97;;;;;;;2.70;78.54;95544.81;5054895;28;20502;-83
2023/12/31 07:23:21;;;;;;;105.28;48.15;;;;;;;1.31;78.15;95313.34;5070543;28;20025;-81
2023/12/31 07:25:47;;;;;;;113.45;50.72;;;;;;;2.73;78.67;95546.22;5070532;28;20028;-83
2023/12/31 07:28:12;;;;;;;107.43;49.83;;;;;;;3.20;78.64;95612.88;5053540;28;20040;-82
2023/12/31 07:30:39;;;;;;;104.40;50.33;;;;;;;3.02;78.54;95582.22;5055049;28;20024;-82
2023/12/31 07:33:05;;;;;;;113.18;50.72;;;;;;;3.02;78.39;95569.09;5055824;28;20025;-83
2023/12/31 07:35:34;;;;;;;117.18;51.10;;;;;;;2.79;78.48;95527.00;5053719;28;20121;-82
2023/12/31 07:38:00;;;;;;;116.93;51.83;;;;;;;2.65;78.66;95489.69;5053293;28;20506;-81
2023/12/31 07:40:26;;;;;;;122.40;52.20;;;;;;;3.14;78.85;95569.16;5053201;28;20056;-81
2023/12/31 07:42:51;;;;;;;127.30;50.38;;;;;;;3.35;79.15;95597.59;5053670;28;20063;-81
2023/12/31 07:45:17;;;;;;;113.75;52.50;;;;;;;3.05;78.75;95539.06;5053617;28;20075;-82
2023/12/31 07:47:42;;;;;;;110.90;53.53;;;;;;;3.71;78.38;95635.34;5070020;28;20025;-82
2023/12/31 07:50:09;;;;;;;122.43;55.72;;;;;;;3.77;78.72;95639.69;5053464;28;20068;-81
2023/12/31 07:52:34;;;;;;;107.82;53.13;;;;;;;3.68;78.49;95622.66;5055036;28;20013;-82
2023/12/31 07:55:03;;;;;;;115.90;53.25;;;;;;;3.78;79.28;95636.06;5069854;28;20119;-83
2023/12/31 07:57:28;;;;;;;114.28;51.75;;;;;;;2.94;79.17;95488.16;5053196;28;20052;-82
2023/12/31 07:59:54;;;;;;;108.43;51.90;;;;;;;3.47;79.06;95568.81;5069370;28;20040;-82
2023/12/31 08:02:19;;;;;;;108.68;50.22;;;;;;;3.31;78.98;95541.38;5052325;28;20080;-82
2023/12/31 08:04:45;;;;;;;108.97;52.30;;;;;;;3.08;78.90;95494.06;5052602;28;20032;-82
2023/12/31 08:07:10;;;;;;;83.63;42.30;;;;;;;3.59;78.95;95595.91;5054758;28;20033;-82
2023/12/31 08:09:36;;;;;;;87.53;40.80;;;;;;;3.64;79.40;95580.34;5069530;28;20093;-82
2023/12/31 08:12:02;;;;;;;86.97;41.58;;;;;;;3.39;79.33;95542.91;5053560;28;20032;-82
2023/12/31 08:14:28;;;;;;;89.35;39.63;;;;;;;3.41;79.29;95551.34;5069817;28;20136;-82
2023/12/31 08:16:54;;;;;;;76.93;37.67;;;;;;;3.91;78.78;95609.66;5055015;28;20045;-82
2023/12/31 08:19:19;;;;;;;74.50;35.83;;;;;;;4.09;78.91;95628.00;5055548;28;20025;-83
2023/12/31 08:21:45;;;;;;;72.80;35.92;;;;;;;3.82;79.50;95575.03;5069769;28;20538;-82
2023/12/31 08:24:14;;;;;;;74.97;36.50;;;;;;;3.96;79.34;95596.69;5069113;28;20040;-82
2023/12/31 08:26:39;;;;;;;76.28;36.13;;;;;;;2.77;79.14;95389.41;5052901;28;20315;-82
2023/12/31 08:29:05;;;;;;;61.58;31.05;;;;;;;3.29;79.05;95470.00;5053007;28;20033;-82
2023/12/31 08:31:31;;;;;;;57.65;31.25;;;;;;;3.80;79.09;95545.63;5053968;28;20025;-81
2023/12/31 08:33:56;;;;;;;61.38;31.63;;;;;;;4.38;78.87;95630.84;5053339;28;20059;-81
2023/12/31 08:36:22;;;;;;;54.83;29.27;;;;;;;4.58;78.77;95644.47;5070656;28;20427;-82
2023/12/31 08:38:47;;;;;;;64.03;29.00;;;;;;;4.49;78.65;95630.09;5055963;28;20029;-81
2023/12/31 08:41:13;;;;;;;59.83;29.50;;;;;;;4.60;78.93;95648.50;5056933;28;20116;-82
2023/12/31 08:43:38;;;;;;;52.20;26.67;;;;;;;4.70;79.08;95647.97;5058713;28;20187;-82
2023/12/31 08:46:04;;;;;;;51.95;27.17;;;;;;;4.59;78.80;95633.75;5071249;28;20032;-82
2023/12/31 08:48:29;;;;;;;66.30;27.55;;;;;;;3.99;78.71;95522.75;5070336;28;20040;-82
2023/12/31 08:50:55;;;;;;;60.45;27.27;;;;;;;4.76;78.66;95646.25;5053098;28;20118;-82
2023/12/31 08:53:21;;;;;;;55.53;26.35;;;;;;;3.37;78.57;95424.34;5053916;28;20025;-81
2023/12/31 08:55:51;;;;;;;47.85;24.67;;;;;;;2.46;78.35;95249.00;5052814;28;20071;-82
2023/12/31 08:58:17;;;;;;;48.50;23.50;;;;;;;4.87;78.89;95621.84;5054578;28;20036;-83
2023/12/31 09:00:43;;;;;;;48.00;23.95;;;;;;;3.86;78.74;95458.16;5052300;28;20090;-82
2023/12/31 09:03:08;;;;;;;44.20;24.20;;;;;;;4.98;78.77;95616.56;5068690;28;20049;-82
2023/12/31 09:05:34;;;;;;;47.85;23.58;;;;;;;4.71;78.92;95565.50;5068237;28;20049;-82
2023/12/31 09:07:59;;;;;;;51.22;25.60;;;;;;;4.78;78.49;95579.31;5051864;28;20040;-82
2023/12/31 09:10:25;;;;;;;58.20;28.25;;;;;;;5.14;78.28;95620.34;5068634;28;20110;-82
2023/12/31 09:12:50;;;;;;;56.13;29.20;;;;;;;5.13;78.42;95613.50;5068129;28;20025;-82
2023/12/31 09:15:16;;;;;;;63.00;31.65;;;;;;;5.10;78.41;95613.97;5052330;28;20053;-81
2023/12/31 09:17:42;;;;;;;62.92;32.25;;;;;;;5.33;78.45;95635.00;5068084;28;20040;-81
2023/12/31 09:20:08;;;;;;;60.28;32.45;;;;;;;5.25;78.26;95613.50;5068278;28;20061;-82
2023/12/31 09:22:34;;;;;;;71.57;35.70;;;;;;;5.15;78.21;95582.53;5051380;28;20037;-82
2023/12/31 09:25:00;;;;;;;69.97;34.88;;;;;;;5.28;77.90;95590.16;5051227;28;20517;-82
2023/12/31 09:27:25;;;;;;;68.93;35.67;;;;;;;5.54;77.72;95628.34;5052354;28;20036;-83
2023/12/31 09:29:51;;;;;;;63.50;33.10;;;;;;;5.33;77.79;95585.03;5068531;28;20041;-87
2023/12/31 09:32:16;;;;;;;61.72;32.35;;;;;;;5.46;77.58;95598.97;5076248;28;20029;-86
2023/12/31 09:34:42;;;;;;;72.70;32.42;;;;;;;5.63;76.91;95615.66;5075933;28;20025;-88
2023/12/31 09:37:08;;;;;;;70.28;32.83;;;;;;;5.35;77.11;95561.13;5059143;28;20044;-88
2023/12/31 09:39:34;;;;;;;69.63;33.78;;;;;;;5.36;77.18;95562.72;5058940;28;20048;-87
2023/12/31 09:42:12;;;;;;;68.93;31.70;;;;;;;5.69;77.50;95598.94;5059777;28;20487;-87
2023/12/31 09:44:40;;;;;;;67.43;31.60;;;;;;;5.24;77.27;95509.34;5058846;28;20032;-87
2023/12/31 09:47:07;;;;;;;59.97;28.75;;;;;;;5.79;77.21;95588.63;5059763;28;20040;-87
2023/12/31 09:49:36;;;;;;;67.90;29.75;;;;;;;5.42;77.29;95532.84;5060085;28;20399;-88
2023/12/31 09:52:09;;;;;;;62.83;30.05;;;;;;;5.53;77.33;95545.19;5058500;28;20025;-87
2023/12/31 09:54:40;;;;;;;59.42;29.02;;;;;;;5.83;77.13;95581.84;5057563;28;20049;-87
2023/12/31 09:57:07;;;;;;;54.67;29.58;;;;;;;5.14;76.61;95457.34;5058591;28;20025;-87
2023/12/31 09:59:33;;;;;;;54.35;26.13;;;;;;;5.83;77.39;95560.78;5058249;28;20075;-87
2023/12/31 10:02:04;;;;;;;45.95;24.88;;;;;;;6.02;76.64;95569.34;5057117;28;20067;-87
2023/12/31 10:04:30;;;;;;;55.20;25.58;;;;;;;5.40;76.61;95448.16;5056677;28;20036;-87
2023/12/31 10:06:59;;;;;;;60.55;26.63;;;;;;;5.96;76.60;95541.28;5059330;28;20036;-88
2023/12/31 10:09:30;;;;;;;55.00;26.33;;;;;;;6.10;75.99;95550.53;5060560;28;20071;-87
2023/12/31 10:11:56;;;;;;;49.92;25.27;;;;;;;6.15;75.94;95553.25;5059393;28;20033;-87
2023/12/31 10:14:22;;;;;;;52.50;23.60;;;;;;;5.75;76.09;95476.94;5058909;28;20036;-87
2023/12/31 10:16:48;;;;;;;54.25;25.77;;;;;;;5.96;75.36;95492.06;5057560;28;20414;-87
2023/12/31 10:19:14;;;;;;;54.22;24.92;;;;;;;5.93;75.33;95463.63;5060908;28;20043;-88
2023/12/31 10:21:41;;;;;;;50.90;25.30;;;;;;;6.98;76.57;95534.03;5057591;28;20033;-88
2023/12/31 10:24:08;;;;;;;42.45;24.10;;;;;;;7.73;74.86;95517.59;5058285;28;20132;-87
2023/12/31 10:26:34;;;;;;;44.83;23.48;;;;;;;8.87;72.53;95536.66;5074012;28;20376;-88
2023/12/31 10:28:59;;;;;;;39.80;21.38;;;;;;;9.92;68.45;95537.47;5057224;28;20230;-88
2023/12/31 10:31:25;;;;;;;49.58;23.30;;;;;;;10.36;64.66;95434.50;5057534;28;20054;-88
2023/12/31 10:33:51;;;;;;;41.55;23.55;;;;;;;11.01;59.03;95427.50;5059639;28;20051;-88
2023/12/31 10:36:23;;;;;;;51.75;23.67;;;;;;;11.65;57.35;95423.28;5058852;28;20037;-88
2023/12/31 10:38:51;;;;;;;41.78;22.65;;;;;;;12.47;54.65;95440.31;5057362;28;20049;-87
2023/12/31 10:41:21;;;;;;;37.95;20.63;;;;;;;13.53;53.14;95492.53;5053511;28;20117;-86
2023/12/31 10:43:52;;;;;;;41.45;19.08;;;;;;;14.04;50.54;95492.69;5051439;28;20055;-86
2023/12/31 10:46:19;;;;;;;33.97;18.95;;;;;;;14.47;49.25;95476.66;5051153;28;20036;-86
2023/12/31 10:49:01;;;;;;;40.45;20.88;;;;;;;14.43;48.16;95403.59;5051153;28;20127;-86
2023/12/31 10:51:26;;;;;;;37.55;19.90;;;;;;;15.40;47.28;95502.34;5053163;28;20097;-86
2023/12/31 10:53:57;;;;;;;30.40;18.55;;;;;;;15.35;46.98;95476.50;5068309;28;20507;-86
2023/12/31 10:56:24;;;;;;;33.20;20.05;;;;;;;15.65;45.94;95490.38;5050877;28;20356;-87
2023/12/31 10:58:54;;;;;;;32.40;17.65;;;;;;;15.34;45.40;95418.78;5051446;28;20028;-86
2023/12/31 11:01:22;;;;;;;25.95;15.45;;;;;;;15.69;45.52;95483.38;5051557;28;20040;-86
2023/12/31 11:03:48;;;;;;;28.23;16.48;;;;;;;15.00;46.02;95416.50;5050727;28;20059;-86
2023/12/31 11:06:16;;;;;;;27.83;16.50;;;;;;;14.76;45.46;95385.69;5051273;28;20423;-86
2023/12/31 11:08:44;;;;;;;28.92;16.08;;;;;;;14.59;46.72;95403.06;5053621;28;20141;-86
2023/12/31 11:11:10;;;;;;;31.98;16.80;;;;;;;14.58;46.90;95420.16;5054221;28;20033;-86
2023/12/31 11:13:39;;;;;;;30.42;16.60;;;;;;;13.74;48.98;95416.59;5072063;28;20037;-86
2023/12/31 11:16:24;;;;;;;29.08;15.45;;;;;;;13.23;48.98;95357.03;5055947;28;20107;-87
2023/12/31 11:19:11;;;;;;;27.30;14.15;;;;;;;12.50;50.06;95336.00;5054854;28;20382;-86